Time;durP1;ratioP1;P1;durP2;ratioP2;P2;SDS_P1;SDS_P2;PMS_P1;PMS_P2;Temp;Humidity;BMP_temperature;BMP_pressure;BME280_temperature;BME280_humidity;BME280_pressure;Samples;Min_cycle;Max_cycle;Signal;HPM_P1;HPM_P2
2023/12/18 00:01:33;;;;;;;5.60;4.30;;;-1.10;99.90;;;;;;5020237;28;20041;-35
2023/12/18 00:04:03;;;;;;;5.05;4.55;;;-1.10;99.90;;;;;;5021055;28;20045;-35
2023/12/18 00:06:31;;;;;;;5.93;5.13;;;-1.10;99.90;;;;;;5023050;28;20104;-37
2023/12/18 00:08:57;;;;;;;;;;;-1.10;99.90;;;;;;5024023;28;20025;-32
2023/12/18 00:11:22;;;;;;;7.22;5.18;;;-1.00;99.90;;;;;;5023940;28;19917;-32
2023/12/18 00:13:48;;;;;;;7.60;5.10;;;-1.00;99.90;;;;;;5024668;28;20069;-34
2023/12/18 00:16:13;;;;;;;7.28;4.72;;;-1.00;99.90;;;;;;5022893;28;20096;-33
2023/12/18 00:18:39;;;;;;;7.03;5.53;;;-1.00;99.90;;;;;;5023106;28;20151;-32
2023/12/18 00:21:04;;;;;;;5.20;3.72;;;-1.00;99.90;;;;;;5019193;28;20753;-36
2023/12/18 00:23:30;;;;;;;4.88;4.45;;;-1.00;99.90;;;;;;5023418;28;20585;-33
2023/12/18 00:25:56;;;;;;;7.78;5.28;;;-0.90;99.90;;;;;;5021372;28;20361;-34
2023/12/18 00:28:21;;;;;;;6.20;5.00;;;-0.90;99.90;;;;;;5023450;28;20037;-42
2023/12/18 00:30:48;;;;;;;7.47;5.03;;;-0.90;99.90;;;;;;5021211;28;20025;-35
2023/12/18 00:33:13;;;;;;;9.13;5.18;;;-0.80;99.90;;;;;;5022254;28;20121;-42
2023/12/18 00:35:40;;;;;;;3.55;3.33;;;-0.80;99.90;;;;;;5024250;28;20029;-40
2023/12/18 00:38:05;;;;;;;7.82;4.55;;;-0.80;99.90;;;;;;5022291;28;20021;-36
2023/12/18 00:40:31;;;;;;;3.72;3.35;;;-0.80;99.90;;;;;;5023803;28;20033;-35
2023/12/18 00:42:57;;;;;;;7.53;4.90;;;-0.90;99.90;;;;;;5022677;28;20026;-39
2023/12/18 00:45:23;;;;;;;11.80;4.75;;;-1.00;99.90;;;;;;5021271;28;20203;-40
2023/12/18 00:47:49;;;;;;;6.10;5.30;;;-1.00;99.90;;;;;;5021994;28;20312;-42
2023/12/18 00:50:14;;;;;;;6.53;4.95;;;-1.00;99.90;;;;;;5024175;28;20440;-40
2023/12/18 00:52:40;;;;;;;8.10;4.65;;;-1.00;99.90;;;;;;5023556;28;20048;-41
2023/12/18 00:55:07;;;;;;;9.48;5.18;;;-1.20;99.90;;;;;;5021425;28;20025;-40
2023/12/18 00:57:33;;;;;;;8.02;5.35;;;-1.10;99.90;;;;;;5021664;28;20833;-35
2023/12/18 00:59:59;;;;;;;5.90;4.25;;;-1.10;99.90;;;;;;5022203;28;20045;-36
2023/12/18 01:02:25;;;;;;;7.95;4.35;;;-1.10;99.90;;;;;;5038486;28;20029;-37
2023/12/18 01:04:51;;;;;;;8.20;3.97;;;-1.10;99.90;;;;;;5041547;28;20071;-38
2023/12/18 01:07:16;;;;;;;7.80;4.85;;;-1.20;99.90;;;;;;5042772;28;20021;-41
2023/12/18 01:09:42;;;;;;;7.00;4.70;;;-1.30;99.90;;;;;;5041594;28;20512;-33
2023/12/18 01:12:07;;;;;;;4.95;3.72;;;-1.30;99.90;;;;;;5041354;28;20592;-35
2023/12/18 01:14:33;;;;;;;4.25;3.65;;;-1.30;99.90;;;;;;5039410;28;20027;-37
2023/12/18 01:16:58;;;;;;;5.40;4.78;;;-1.30;99.90;;;;;;5042777;28;20041;-34
2023/12/18 01:19:24;;;;;;;4.55;4.15;;;-1.30;99.90;;;;;;5040691;28;20029;-41
2023/12/18 01:21:50;;;;;;;5.20;4.18;;;-1.40;99.90;;;;;;5041971;28;20037;-41
2023/12/18 01:24:16;;;;;;;7.65;5.13;;;-1.40;99.90;;;;;;5042587;28;20055;-39
2023/12/18 01:26:42;;;;;;;6.40;5.18;;;-1.40;99.90;;;;;;5042905;28;20025;-37
2023/12/18 01:29:07;;;;;;;7.70;4.63;;;-1.40;99.90;;;;;;5040172;28;20395;-40
2023/12/18 01:31:33;;;;;;;6.43;4.85;;;-1.30;99.90;;;;;;5043924;28;20153;-35
2023/12/18 01:33:59;;;;;;;4.90;4.40;;;-1.30;99.90;;;;;;5046444;28;20028;-36
2023/12/18 01:36:25;;;;;;;5.35;4.65;;;-1.30;99.90;;;;;;5045241;28;20086;-37
2023/12/18 01:38:50;;;;;;;4.90;4.43;;;-1.40;99.90;;;;;;5044410;28;20033;-39
2023/12/18 01:41:17;;;;;;;7.45;5.18;;;-1.40;99.90;;;;;;5046629;28;20029;-39
2023/12/18 01:43:43;;;;;;;6.60;5.53;;;-1.40;99.90;;;;;;5046188;28;20033;-38
2023/12/18 01:46:11;;;;;;;6.68;5.85;;;-1.40;99.90;;;;;;5039677;28;20025;-38
2023/12/18 01:48:37;;;;;;;6.72;5.70;;;-1.30;99.90;;;;;;5041806;28;20144;-38
2023/12/18 01:51:04;;;;;;;5.57;4.45;;;-1.30;99.90;;;;;;5045981;28;20119;-39
2023/12/18 01:53:35;;;;;;;5.70;4.13;;;-1.30;99.90;;;;;;5039672;28;20037;-35
2023/12/18 01:56:02;;;;;;;5.07;4.63;;;-1.40;99.90;;;;;;5033345;28;20030;-35
2023/12/18 01:58:31;;;;;;;6.75;5.10;;;-1.40;99.90;;;;;;5038950;28;20025;-36
2023/12/18 02:00:57;;;;;;;;;;;-1.50;99.90;;;;;;5036217;28;20053;-39
2023/12/18 02:03:23;;;;;;;4.75;3.70;;;-1.60;99.90;;;;;;5012292;28;20435;-39
2023/12/18 02:05:49;;;;;;;3.83;3.50;;;-1.60;99.90;;;;;;5014434;28;20037;-38
2023/12/18 02:08:15;;;;;;;3.95;3.60;;;-1.50;99.90;;;;;;5015095;28;20064;-37
2023/12/18 02:10:42;;;;;;;6.03;4.45;;;-1.50;99.90;;;;;;5019813;28;20954;-39
2023/12/18 02:13:07;;;;;;;5.03;4.53;;;-1.50;99.90;;;;;;5021912;28;20021;-38
2023/12/18 02:15:33;;;;;;;6.93;3.78;;;-1.40;99.90;;;;;;5021405;28;20029;-39
2023/12/18 02:17:59;;;;;;;5.38;3.97;;;-1.40;99.90;;;;;;5021917;28;20124;-38
2023/12/18 02:20:24;;;;;;;6.25;5.32;;;-1.40;99.90;;;;;;5022116;28;20025;-36
2023/12/18 02:22:51;;;;;;;3.85;3.38;;;-1.40;99.90;;;;;;5019870;28;20030;-40
2023/12/18 02:25:18;;;;;;;7.00;4.45;;;-1.40;99.90;;;;;;5014787;28;20037;-38
2023/12/18 02:27:50;;;;;;;8.82;5.20;;;-1.40;99.90;;;;;;5019668;28;20488;-39
2023/12/18 02:30:17;;;;;;;5.70;3.88;;;-1.40;99.90;;;;;;5017082;28;20048;-38
2023/12/18 02:32:43;;;;;;;4.78;4.32;;;-1.50;99.90;;;;;;5041350;28;20120;-37
2023/12/18 02:35:09;;;;;;;3.13;2.92;;;-1.60;99.90;;;;;;5036869;28;20022;-37
2023/12/18 02:37:35;;;;;;;4.50;3.83;;;-1.60;99.90;;;;;;5039871;28;20033;-36
2023/12/18 02:40:00;;;;;;;6.75;4.90;;;-1.60;99.90;;;;;;5039967;28;20028;-38
2023/12/18 02:42:26;;;;;;;5.15;4.15;;;-1.60;99.90;;;;;;5041359;28;20494;-35
2023/12/18 02:44:53;;;;;;;4.45;3.30;;;-1.70;99.90;;;;;;5044774;28;20021;-39
2023/12/18 02:47:18;;;;;;;4.00;3.45;;;-1.70;99.90;;;;;;5046590;28;20056;-37
2023/12/18 02:49:44;;;;;;;7.30;4.05;;;-1.70;99.90;;;;;;5047340;28;20053;-30
2023/12/18 02:52:10;;;;;;;4.55;4.15;;;-1.70;99.90;;;;;;5044840;28;20028;-30
2023/12/18 02:54:36;;;;;;;6.55;4.22;;;-1.70;99.90;;;;;;5047004;28;20021;-30
2023/12/18 02:57:02;;;;;;;3.40;3.20;;;-1.70;99.90;;;;;;5041154;28;20352;-30
2023/12/18 02:59:28;;;;;;;3.40;3.00;;;-1.70;99.90;;;;;;5045124;28;20033;-33
2023/12/18 03:01:53;;;;;;;7.40;4.70;;;-1.70;99.90;;;;;;5044850;28;20044;-31
2023/12/18 03:04:19;;;;;;;4.68;4.03;;;-1.70;99.90;;;;;;5047167;28;20127;-32
2023/12/18 03:06:48;;;;;;;5.15;4.63;;;-1.70;99.90;;;;;;5046064;28;20084;-30
2023/12/18 03:09:14;;;;;;;3.90;3.60;;;-1.70;99.90;;;;;;5046819;28;20025;-38
2023/12/18 03:11:41;;;;;;;3.63;3.33;;;-1.60;99.90;;;;;;5040617;28;20084;-39
2023/12/18 03:14:07;;;;;;;4.50;4.10;;;-1.60;99.90;;;;;;5039991;28;20028;-38
2023/12/18 03:16:33;;;;;;;4.07;3.80;;;-1.60;99.90;;;;;;5032668;28;20037;-37
2023/12/18 03:18:59;;;;;;;4.75;4.45;;;-1.60;99.90;;;;;;5044507;28;20028;-39
2023/12/18 03:21:24;;;;;;;5.53;4.07;;;-1.60;99.90;;;;;;5043046;28;20700;-39
2023/12/18 03:23:50;;;;;;;5.80;3.30;;;-1.70;99.90;;;;;;5042708;28;20032;-38
2023/12/18 03:26:16;;;;;;;6.28;3.95;;;-1.70;99.90;;;;;;5044299;28;20037;-39
2023/12/18 03:28:42;;;;;;;4.18;3.72;;;-1.70;99.90;;;;;;5044520;28;20033;-39
2023/12/18 03:31:09;;;;;;;5.22;4.18;;;-1.80;99.90;;;;;;5044556;28;20029;-40
2023/12/18 03:33:35;;;;;;;4.38;4.05;;;-1.70;99.90;;;;;;5043166;28;20025;-38
2023/12/18 03:36:01;;;;;;;5.03;4.18;;;-1.70;99.90;;;;;;5043926;28;20089;-36
2023/12/18 03:38:26;;;;;;;7.07;4.95;;;-1.60;99.90;;;;;;5040937;28;20120;-38
2023/12/18 03:40:52;;;;;;;5.43;4.00;;;-1.60;99.90;;;;;;5042864;28;20021;-39
2023/12/18 03:43:17;;;;;;;3.80;3.10;;;-1.60;99.90;;;;;;5043930;28;20859;-37
2023/12/18 03:45:43;;;;;;;5.32;3.90;;;-1.60;99.90;;;;;;5043840;28;20503;-37
2023/12/18 03:48:08;;;;;;;4.88;4.40;;;-1.60;99.90;;;;;;5043596;28;20423;-39
2023/12/18 03:50:34;;;;;;;4.97;4.07;;;-1.60;99.90;;;;;;5043337;28;20494;-38
2023/12/18 03:52:59;;;;;;;5.28;4.55;;;-1.60;99.90;;;;;;5043725;28;20091;-37
2023/12/18 03:55:25;;;;;;;4.65;3.47;;;-1.70;99.90;;;;;;5042101;28;20044;-38
2023/12/18 03:57:51;;;;;;;3.53;3.22;;;-1.60;99.90;;;;;;5043620;28;20044;-38
2023/12/18 04:00:17;;;;;;;3.53;2.80;;;-1.60;99.90;;;;;;5044939;28;20094;-36
2023/12/18 04:02:42;;;;;;;5.88;4.60;;;-1.60;99.90;;;;;;5044934;28;20399;-36
2023/12/18 04:05:08;;;;;;;3.78;3.22;;;-1.60;99.90;;;;;;5044570;28;20120;-41
2023/12/18 04:07:34;;;;;;;3.75;3.40;;;-1.70;99.90;;;;;;5050322;28;20050;-39
2023/12/18 04:10:00;;;;;;;6.80;4.68;;;-1.80;99.90;;;;;;5047166;28;20031;-41
2023/12/18 04:12:25;;;;;;;4.97;4.28;;;-1.80;99.90;;;;;;5049475;28;20453;-37
2023/12/18 04:14:51;;;;;;;3.67;3.38;;;-1.80;99.90;;;;;;5050364;28;20040;-41
2023/12/18 04:17:16;;;;;;;6.00;4.82;;;-1.70;99.90;;;;;;5045251;28;20068;-40
2023/12/18 04:19:42;;;;;;;3.05;2.72;;;-1.70;99.90;;;;;;5041491;28;20786;-38
2023/12/18 04:22:08;;;;;;;4.55;4.15;;;-1.90;99.90;;;;;;5042708;28;20025;-39
2023/12/18 04:24:33;;;;;;;5.35;4.50;;;-1.90;99.90;;;;;;5036987;28;20777;-41
2023/12/18 04:26:59;;;;;;;4.25;3.75;;;-1.80;99.90;;;;;;5039401;28;20040;-37
2023/12/18 04:29:25;;;;;;;5.35;4.00;;;-1.80;99.90;;;;;;5042716;28;20487;-41
2023/12/18 04:31:51;;;;;;;5.85;4.38;;;-1.80;99.90;;;;;;5024927;28;20037;-39
2023/12/18 04:34:16;;;;;;;8.00;4.35;;;-1.70;99.90;;;;;;5024806;28;20346;-41
2023/12/18 04:36:43;;;;;;;5.80;4.10;;;-1.70;99.90;;;;;;5023371;28;20032;-38
2023/12/18 04:39:10;;;;;;;4.00;3.60;;;-1.70;99.90;;;;;;5020793;28;20039;-41
2023/12/18 04:41:35;;;;;;;5.00;3.75;;;-1.70;99.90;;;;;;5014978;28;20033;-41
2023/12/18 04:44:01;;;;;;;7.20;4.38;;;-1.70;99.90;;;;;;5015950;28;20396;-40
2023/12/18 04:46:27;;;;;;;3.60;3.35;;;-1.70;99.90;;;;;;5014940;28;20084;-39
2023/12/18 04:48:52;;;;;;;4.55;3.80;;;-1.70;99.90;;;;;;5014175;28;20032;-38
2023/12/18 04:51:18;;;;;;;5.28;4.20;;;-1.70;99.90;;;;;;5016589;28;20028;-38
2023/12/18 04:53:44;;;;;;;5.70;4.72;;;-1.70;99.90;;;;;;5015124;28;20030;-34
2023/12/18 04:56:09;;;;;;;4.40;4.00;;;-1.70;99.90;;;;;;5019626;28;20034;-40
2023/12/18 04:58:35;;;;;;;5.60;3.85;;;-1.70;99.90;;;;;;5011994;28;20124;-37
2023/12/18 05:01:02;;;;;;;4.60;3.78;;;-1.70;99.90;;;;;;5020909;28;20693;-36
2023/12/18 05:03:28;;;;;;;11.55;4.53;;;-1.70;99.90;;;;;;5038436;28;20041;-34
2023/12/18 05:05:53;;;;;;;4.72;4.15;;;-1.70;99.90;;;;;;5038866;28;20040;-33
2023/12/18 05:08:19;;;;;;;6.55;3.72;;;-1.80;99.90;;;;;;5040219;28;20463;-38
2023/12/18 05:10:45;;;;;;;4.07;3.47;;;-1.80;99.90;;;;;;5036563;28;20021;-37
2023/12/18 05:13:10;;;;;;;7.13;4.78;;;-1.80;99.90;;;;;;5040886;28;20013;-39
2023/12/18 05:15:36;;;;;;;5.80;3.78;;;-1.80;99.90;;;;;;5041205;28;20103;-38
2023/12/18 05:18:02;;;;;;;5.07;4.53;;;-1.90;99.90;;;;;;5043447;28;20078;-40
2023/12/18 05:20:27;;;;;;;7.78;5.18;;;-1.80;99.90;;;;;;5040235;28;20905;-34
2023/12/18 05:22:53;;;;;;;4.65;4.13;;;-1.80;99.90;;;;;;5041796;28;20032;-35
2023/12/18 05:25:18;;;;;;;4.57;3.90;;;-1.90;99.90;;;;;;5042026;28;20055;-36
2023/12/18 05:27:44;;;;;;;8.90;4.07;;;-1.90;99.90;;;;;;5040678;28;20475;-39
2023/12/18 05:30:10;;;;;;;5.50;4.78;;;-1.90;99.90;;;;;;5041797;28;20641;-34
2023/12/18 05:32:36;;;;;;;8.77;4.22;;;-1.90;99.90;;;;;;5040345;28;20048;-34
2023/12/18 05:35:02;;;;;;;4.07;3.42;;;-1.90;99.90;;;;;;5041187;28;20048;-33
2023/12/18 05:37:29;;;;;;;3.85;3.47;;;-2.00;99.90;;;;;;5039209;28;20514;-37
2023/12/18 05:39:54;;;;;;;2.20;2.10;;;-2.00;99.90;;;;;;5042251;28;20025;-33
2023/12/18 05:42:20;;;;;;;4.88;4.30;;;-2.00;99.90;;;;;;5041614;28;20040;-35
2023/12/18 05:44:46;;;;;;;7.35;3.85;;;-2.00;99.90;;;;;;5037010;28;20021;-34
2023/12/18 05:47:11;;;;;;;5.47;3.72;;;-2.00;99.90;;;;;;5040791;28;20523;-36
2023/12/18 05:49:37;;;;;;;6.90;4.43;;;-1.90;99.90;;;;;;5042237;28;20104;-34
2023/12/18 05:52:03;;;;;;;3.35;3.08;;;-1.90;99.90;;;;;;5041034;28;20642;-36
2023/12/18 05:54:29;;;;;;;9.20;5.15;;;-1.90;99.90;;;;;;5039422;28;20029;-36
2023/12/18 05:56:55;;;;;;;3.33;3.03;;;-1.90;99.90;;;;;;5041938;28;20025;-34
2023/12/18 05:59:21;;;;;;;4.88;4.00;;;-1.90;99.90;;;;;;5042567;28;20195;-32
2023/12/18 06:01:46;;;;;;;5.28;3.72;;;-1.90;99.90;;;;;;5027590;28;20563;-33
2023/12/18 06:04:12;;;;;;;5.40;4.90;;;-2.00;99.90;;;;;;5021148;28;20037;-36
2023/12/18 06:06:37;;;;;;;6.45;4.65;;;-2.00;99.90;;;;;;5022309;28;20385;-33
2023/12/18 06:09:03;;;;;;;5.78;4.70;;;-2.00;99.90;;;;;;5022471;28;20104;-33
2023/12/18 06:11:29;;;;;;;7.95;5.15;;;-1.90;99.90;;;;;;5049857;28;20400;-37
2023/12/18 06:13:55;;;;;;;7.15;4.90;;;-1.90;99.90;;;;;;5022290;28;20545;-32
2023/12/18 06:16:20;;;;;;;6.45;5.72;;;-2.00;99.90;;;;;;5034103;28;20037;-35
2023/12/18 06:18:46;;;;;;;6.10;4.70;;;-2.00;99.90;;;;;;5016953;28;20064;-36
2023/12/18 06:21:12;;;;;;;6.40;5.20;;;-2.00;99.90;;;;;;5019626;28;20479;-42
2023/12/18 06:23:38;;;;;;;7.25;5.85;;;-2.00;99.90;;;;;;5020014;28;20138;-40
2023/12/18 06:26:04;;;;;;;11.00;6.10;;;-1.90;99.90;;;;;;5019028;28;20021;-40
2023/12/18 06:28:30;;;;;;;8.55;6.38;;;-1.90;99.90;;;;;;5052021;28;20549;-40
2023/12/18 06:30:55;;;;;;;8.57;6.40;;;-2.00;99.90;;;;;;5020149;28;20070;-41
2023/12/18 06:33:21;;;;;;;6.88;5.53;;;-2.00;99.90;;;;;;5018609;28;20044;-33
2023/12/18 06:35:47;;;;;;;5.15;4.65;;;-2.00;99.90;;;;;;5019768;28;20080;-40
2023/12/18 06:38:12;;;;;;;8.80;4.90;;;-2.00;99.90;;;;;;5019032;28;20056;-35
2023/12/18 06:40:38;;;;;;;5.20;4.07;;;-2.00;99.90;;;;;;5019114;28;20032;-34
2023/12/18 06:43:04;;;;;;;3.42;3.22;;;-2.10;99.90;;;;;;5020699;28;20315;-34
2023/12/18 06:45:29;;;;;;;8.57;5.25;;;-2.10;99.90;;;;;;5031709;28;20034;-36
2023/12/18 06:47:55;;;;;;;7.20;5.78;;;-2.10;99.90;;;;;;5019872;28;20241;-33
2023/12/18 06:50:20;;;;;;;4.07;3.78;;;-2.10;99.90;;;;;;5011345;28;20088;-34
2023/12/18 06:52:46;;;;;;;8.15;4.45;;;-2.10;99.90;;;;;;5016724;28;20104;-35
2023/12/18 06:55:12;;;;;;;4.55;4.15;;;-2.10;99.90;;;;;;5010460;28;20030;-35
2023/12/18 06:57:37;;;;;;;4.72;4.40;;;-2.10;99.90;;;;;;5013203;28;20029;-36
2023/12/18 07:00:04;;;;;;;6.60;5.20;;;-2.10;99.90;;;;;;5007616;28;20536;-37
2023/12/18 07:02:29;;;;;;;5.68;5.13;;;-2.20;99.90;;;;;;5024244;28;20034;-35
2023/12/18 07:04:56;;;;;;;6.15;4.97;;;-2.20;99.90;;;;;;5013310;28;20116;-35
2023/12/18 07:07:22;;;;;;;6.97;6.25;;;-2.20;99.90;;;;;;5008439;28;20685;-33
2023/12/18 07:09:48;;;;;;;5.10;4.20;;;-2.20;99.90;;;;;;5011083;28;20025;-32
2023/12/18 07:12:13;;;;;;;5.25;3.88;;;-2.20;99.90;;;;;;5006270;28;20030;-34
2023/12/18 07:14:42;;;;;;;4.13;3.22;;;-2.20;99.90;;;;;;5015793;28;20236;-34
2023/12/18 07:17:08;;;;;;;4.80;3.72;;;-2.20;99.90;;;;;;5042845;28;20022;-33
2023/12/18 07:19:37;;;;;;;4.15;3.85;;;-2.20;99.90;;;;;;5010597;28;20021;-33
2023/12/18 07:22:09;;;;;;;4.25;3.95;;;-2.20;99.90;;;;;;5010669;28;20029;-34
2023/12/18 07:24:34;;;;;;;3.70;3.40;;;-2.20;99.90;;;;;;5007367;28;20045;-33
2023/12/18 07:27:00;;;;;;;7.00;4.38;;;-2.20;99.90;;;;;;5013318;28;20029;-34
2023/12/18 07:29:26;;;;;;;5.20;3.83;;;-2.20;99.90;;;;;;5009547;28;20034;-34
2023/12/18 07:31:52;;;;;;;7.32;4.45;;;-2.20;99.90;;;;;;5012874;28;20123;-32
2023/12/18 07:34:17;;;;;;;5.72;4.72;;;-2.10;99.90;;;;;;5021139;28;20057;-33
2023/12/18 07:36:46;;;;;;;8.77;6.05;;;-2.00;99.90;;;;;;5018972;28;20034;-34
2023/12/18 07:39:14;;;;;;;4.57;4.15;;;-2.00;99.90;;;;;;5027189;28;20041;-33
2023/12/18 07:41:40;;;;;;;;;;;-2.00;99.90;;;;;;5014324;28;20142;-32
2023/12/18 07:44:05;;;;;;;5.63;3.60;;;-2.00;99.90;;;;;;5011087;28;19913;-32
2023/12/18 07:46:34;;;;;;;6.75;4.38;;;-1.90;99.90;;;;;;5017471;28;20022;-33
2023/12/18 07:49:00;;;;;;;5.32;4.75;;;-1.90;99.90;;;;;;5016769;28;20018;-38
2023/12/18 07:51:26;;;;;;;29.23;4.57;;;-1.90;99.90;;;;;;5049625;28;20503;-33
2023/12/18 07:53:51;;;;;;;5.53;3.70;;;-1.90;99.90;;;;;;5014275;28;20057;-41
2023/12/18 07:56:17;;;;;;;10.10;4.93;;;-1.80;99.90;;;;;;5047613;28;20030;-40
2023/12/18 07:58:43;;;;;;;3.67;3.38;;;-1.80;99.90;;;;;;5013838;28;20593;-36
2023/12/18 08:01:09;;;;;;;6.18;4.18;;;-1.80;99.90;;;;;;5026951;28;20049;-41
2023/12/18 08:03:34;;;;;;;6.68;4.55;;;-1.80;99.90;;;;;;5013312;28;20034;-37
2023/12/18 08:06:00;;;;;;;4.35;4.00;;;-1.80;99.90;;;;;;5047647;28;20041;-42
2023/12/18 08:08:25;;;;;;;4.22;3.90;;;-1.80;99.90;;;;;;5019585;28;20037;-37
2023/12/18 08:10:51;;;;;;;3.65;3.20;;;-1.80;99.90;;;;;;5017241;28;20025;-39
2023/12/18 08:13:17;;;;;;;3.42;3.13;;;-1.80;99.90;;;;;;5006126;28;20787;-36
2023/12/18 08:15:42;;;;;;;3.22;3.03;;;-1.70;99.90;;;;;;5030897;28;20120;-42
2023/12/18 08:18:08;;;;;;;5.22;3.85;;;-1.70;99.90;;;;;;5041311;28;20068;-39
2023/12/18 08:20:34;;;;;;;3.80;3.05;;;-1.70;99.90;;;;;;5038978;28;20406;-42
2023/12/18 08:23:00;;;;;;;5.05;4.20;;;-1.70;99.90;;;;;;5042611;28;20060;-41
2023/12/18 08:25:26;;;;;;;7.13;4.55;;;-1.60;99.90;;;;;;5033729;28;20025;-42
2023/12/18 08:27:51;;;;;;;11.57;6.30;;;-1.60;99.90;;;;;;5028639;28;20051;-42
2023/12/18 08:30:17;;;;;;;2.20;2.10;;;-1.60;99.90;;;;;;5028648;28;20476;-33
2023/12/18 08:32:43;;;;;;;8.15;5.53;;;-1.50;99.90;;;;;;5032922;28;20041;-35
2023/12/18 08:35:08;;;;;;;6.07;4.30;;;-1.50;99.90;;;;;;5038227;28;20028;-39
2023/12/18 08:37:34;;;;;;;7.50;5.05;;;-1.40;99.90;;;;;;5033665;28;20354;-37
2023/12/18 08:40:00;;;;;;;5.95;5.22;;;-1.40;99.90;;;;;;5036881;28;20512;-32
2023/12/18 08:42:30;;;;;;;5.00;4.60;;;-1.40;99.90;;;;;;5039239;28;20032;-33
2023/12/18 08:44:55;;;;;;;7.20;5.10;;;-1.30;99.90;;;;;;5034762;28;20024;-34
2023/12/18 08:47:21;;;;;;;5.07;4.55;;;-1.20;99.90;;;;;;5026876;28;20033;-35
2023/12/18 08:49:46;;;;;;;6.63;5.57;;;-1.10;99.90;;;;;;5024417;28;20753;-33
2023/12/18 08:52:12;;;;;;;4.18;3.53;;;-0.90;99.90;;;;;;5032954;28;20021;-32
2023/12/18 08:54:38;;;;;;;9.88;7.32;;;-0.80;99.90;;;;;;5025850;28;20428;-33
2023/12/18 08:57:05;;;;;;;10.93;5.38;;;-0.70;99.90;;;;;;5027896;28;20599;-34
2023/12/18 08:59:31;;;;;;;10.55;7.80;;;-0.60;99.90;;;;;;5032759;28;20627;-38
2023/12/18 09:01:56;;;;;;;15.68;13.30;;;-0.40;99.90;;;;;;5040413;28;20120;-32
2023/12/18 09:04:22;;;;;;;9.13;7.72;;;-0.30;99.90;;;;;;5048721;28;20060;-34
2023/12/18 09:06:48;;;;;;;6.80;4.80;;;-0.10;99.90;;;;;;5044219;28;20048;-36
2023/12/18 09:09:14;;;;;;;2.75;2.60;;;-0.10;99.90;;;;;;5044741;28;20025;-35
2023/12/18 09:11:39;;;;;;;7.07;5.70;;;0.10;99.90;;;;;;5043983;28;20025;-36
2023/12/18 09:14:05;;;;;;;8.15;5.32;;;0.10;99.90;;;;;;5041423;28;20029;-36
2023/12/18 09:16:31;;;;;;;10.60;6.25;;;0.30;99.90;;;;;;5041025;28;20044;-38
2023/12/18 09:18:57;;;;;;;6.65;5.60;;;0.40;99.90;;;;;;5045844;28;20119;-33
2023/12/18 09:21:22;;;;;;;5.50;4.35;;;0.50;99.90;;;;;;5041293;28;20055;-32
2023/12/18 09:23:49;;;;;;;10.57;7.80;;;0.60;99.90;;;;;;5049408;28;20569;-34
2023/12/18 09:26:16;;;;;;;26.25;17.10;;;0.70;99.90;;;;;;5041580;28;20091;-32
2023/12/18 09:28:43;;;;;;;31.55;20.30;;;0.70;99.90;;;;;;5045415;28;20410;-34
2023/12/18 09:31:08;;;;;;;16.63;10.93;;;0.80;99.90;;;;;;5040120;28;20037;-35
2023/12/18 09:33:34;;;;;;;17.65;10.80;;;0.80;99.90;;;;;;5040615;28;20029;-33
2023/12/18 09:36:00;;;;;;;20.80;12.38;;;0.80;99.90;;;;;;5040967;28;20040;-31
2023/12/18 09:38:26;;;;;;;12.30;8.43;;;0.90;99.90;;;;;;5043242;28;20070;-35
2023/12/18 09:40:52;;;;;;;10.80;7.97;;;1.00;99.90;;;;;;5041269;28;20103;-33
2023/12/18 09:43:18;;;;;;;9.98;7.60;;;1.00;99.90;;;;;;5040194;28;20033;-35
2023/12/18 09:45:48;;;;;;;8.23;5.50;;;1.00;99.90;;;;;;5044559;28;20033;-33
2023/12/18 09:48:16;;;;;;;6.47;5.15;;;1.10;99.90;;;;;;5040484;28;20025;-35
2023/12/18 09:50:43;;;;;;;7.97;6.68;;;1.10;99.90;;;;;;5049310;28;20029;-39
2023/12/18 09:53:12;;;;;;;9.88;7.13;;;1.20;99.90;;;;;;5045003;28;20029;-42
2023/12/18 09:55:38;;;;;;;5.40;4.60;;;1.30;99.90;;;;;;5043026;28;20033;-39
2023/12/18 09:58:05;;;;;;;8.65;4.80;;;1.30;99.90;;;;;;5045254;28;20407;-40
2023/12/18 10:00:31;;;;;;;6.75;5.32;;;1.40;99.90;;;;;;5037461;28;20396;-36
2023/12/18 10:02:58;;;;;;;6.10;5.47;;;1.50;99.90;;;;;;5024662;28;20026;-34
2023/12/18 10:05:24;;;;;;;8.48;6.03;;;1.50;99.90;;;;;;5021400;28;20131;-38
2023/12/18 10:07:52;;;;;;;7.63;6.43;;;1.50;99.90;;;;;;5022739;28;20049;-38
2023/12/18 10:10:18;;;;;;;13.13;7.47;;;1.60;99.90;;;;;;5027569;28;20142;-40
2023/12/18 10:12:43;;;;;;;6.57;5.55;;;1.60;99.90;;;;;;5018705;28;20115;-33
2023/12/18 10:15:11;;;;;;;2.92;2.15;;;1.70;99.90;;;;;;5022397;28;20040;-39
2023/12/18 10:17:41;;;;;;;6.80;5.10;;;2.00;99.90;;;;;;5019925;28;20045;-35
2023/12/18 10:20:09;;;;;;;6.88;4.57;;;2.30;99.90;;;;;;5024361;28;20025;-35
2023/12/18 10:22:35;;;;;;;6.18;4.78;;;2.30;99.90;;;;;;5017539;28;20040;-33
2023/12/18 10:25:02;;;;;;;7.30;4.40;;;2.20;99.90;;;;;;5026229;28;20055;-32
2023/12/18 10:27:31;;;;;;;9.70;4.75;;;2.20;99.90;;;;;;5025945;28;20025;-35
2023/12/18 10:29:57;;;;;;;6.18;4.53;;;2.20;99.90;;;;;;5024260;28;20025;-39
2023/12/18 10:32:25;;;;;;;7.95;5.53;;;2.20;99.90;;;;;;5038729;28;20040;-35
2023/12/18 10:34:51;;;;;;;6.47;5.38;;;2.20;99.90;;;;;;5043188;28;20162;-38
2023/12/18 10:37:20;;;;;;;6.72;4.60;;;2.30;99.90;;;;;;5043795;28;20107;-37
2023/12/18 10:39:49;;;;;;;7.15;4.68;;;2.40;99.90;;;;;;5043666;28;20040;-35
2023/12/18 10:42:25;;;;;;;8.10;5.75;;;2.40;99.90;;;;;;5046094;28;20060;-38
2023/12/18 10:44:52;;;;;;;11.93;8.15;;;2.60;99.90;;;;;;5047448;28;20040;-38
2023/12/18 10:47:19;;;;;;;8.63;6.68;;;2.80;99.90;;;;;;5045980;28;20158;-38
2023/12/18 10:49:47;;;;;;;9.82;6.75;;;2.90;99.90;;;;;;5042270;28;20028;-35
2023/12/18 10:52:14;;;;;;;7.07;4.78;;;2.90;99.90;;;;;;5051100;28;20487;-38
2023/12/18 10:54:42;;;;;;;6.82;4.95;;;3.00;99.90;;;;;;5046036;28;20028;-35
2023/12/18 10:57:09;;;;;;;6.68;4.43;;;3.20;99.90;;;;;;5045959;28;20025;-38
2023/12/18 10:59:36;;;;;;;6.22;4.00;;;3.30;99.90;;;;;;5044884;28;20036;-35
2023/12/18 11:02:03;;;;;;;7.57;5.22;;;3.50;99.90;;;;;;5045727;28;20092;-36
2023/12/18 11:04:29;;;;;;;6.38;5.10;;;3.50;99.90;;;;;;5040780;28;20398;-37
2023/12/18 11:06:57;;;;;;;5.35;4.80;;;3.60;99.90;;;;;;5047293;28;20029;-39
2023/12/18 11:09:23;;;;;;;8.32;5.45;;;3.60;99.90;;;;;;5049583;28;20028;-41
2023/12/18 11:11:48;;;;;;;6.40;5.13;;;3.70;99.90;;;;;;5040099;28;20028;-38
2023/12/18 11:14:54;;;;;;;9.98;6.20;;;3.70;99.90;;;;;;5049402;28;20032;-40
2023/12/18 11:17:41;;;;;;;6.72;5.65;;;3.80;99.90;;;;;;5024240;28;20399;-41
2023/12/18 11:20:37;;;;;;;5.82;4.03;;;3.90;99.90;;;;;;5047635;28;20033;-40
2023/12/18 11:23:03;;;;;;;8.32;4.70;;;3.90;99.90;;;;;;5043794;28;20038;-35
2023/12/18 11:25:35;;;;;;;5.80;4.45;;;4.00;99.90;;;;;;5048581;28;20546;-34
2023/12/18 11:28:05;;;;;;;5.38;4.38;;;4.10;99.90;;;;;;5043459;28;20091;-40
2023/12/18 11:30:44;;;;;;;5.88;4.28;;;4.20;99.90;;;;;;5057174;28;20025;-37
2023/12/18 11:33:13;;;;;;;6.40;4.45;;;4.20;99.90;;;;;;5042665;28;20017;-39
2023/12/18 11:35:43;;;;;;;;;;;4.30;99.90;;;;;;5046477;28;20569;-42
2023/12/18 11:38:12;;;;;;;6.53;4.35;;;4.30;99.90;;;;;;5049533;28;19999;-41
2023/12/18 11:40:43;;;;;;;5.35;3.85;;;4.30;99.90;;;;;;5046908;28;20037;-38
2023/12/18 11:43:32;;;;;;;6.18;3.72;;;4.30;99.90;;;;;;5043924;28;20040;-38
2023/12/18 11:46:00;;;;;;;;;;;4.40;99.90;;;;;;5043999;28;20053;-37
2023/12/18 11:48:26;;;;;;;;;;;4.50;99.90;;;;;;5045789;28;19908;-38
2023/12/18 11:50:52;;;;;;;6.57;4.25;;;4.50;99.90;;;;;;5047458;28;20276;-36
2023/12/18 11:53:23;;;;;;;12.90;8.10;;;4.60;99.90;;;;;;5040456;28;20484;-38
2023/12/18 11:55:51;;;;;;;6.65;5.18;;;4.70;99.90;;;;;;5045786;28;20063;-38
2023/12/18 11:58:19;;;;;;;10.48;5.30;;;4.70;99.90;;;;;;5042944;28;20041;-37
2023/12/18 12:00:45;;;;;;;;;;;4.80;99.90;;;;;;5039895;28;20037;-35
2023/12/18 12:03:12;;;;;;;8.48;5.55;;;4.90;99.90;;;;;;5017005;28;19924;-38
2023/12/18 12:05:39;;;;;;;5.90;4.07;;;5.00;99.90;;;;;;5015132;28;20548;-36
2023/12/18 12:08:06;;;;;;;4.60;3.67;;;5.10;99.90;;;;;;5022659;28;20044;-38
2023/12/18 12:10:42;;;;;;;6.22;4.82;;;5.20;99.90;;;;;;5020114;28;20083;-34
2023/12/18 12:13:08;;;;;;;7.03;4.10;;;5.30;99.90;;;;;;5024664;28;20033;-39
2023/12/18 12:15:33;;;;;;;6.05;4.38;;;5.30;99.90;;;;;;5026420;28;20033;-37
2023/12/18 12:18:04;;;;;;;4.60;4.10;;;5.30;99.90;;;;;;5022709;28;20609;-37
2023/12/18 12:20:30;;;;;;;5.75;5.03;;;5.30;99.90;;;;;;5027189;28;20469;-31
2023/12/18 12:22:56;;;;;;;4.18;3.33;;;5.40;99.90;;;;;;5024268;28;20025;-30
2023/12/18 12:25:21;;;;;;;7.90;5.50;;;5.50;99.90;;;;;;5020650;28;20393;-31
2023/12/18 12:27:47;;;;;;;4.15;3.35;;;5.50;99.90;;;;;;5018968;28;20037;-32
2023/12/18 12:30:13;;;;;;;7.97;5.18;;;5.60;99.90;;;;;;5055871;28;20032;-34
2023/12/18 12:32:39;;;;;;;7.63;5.07;;;5.50;99.90;;;;;;5039998;28;20033;-32
2023/12/18 12:35:07;;;;;;;6.72;4.88;;;5.70;99.90;;;;;;5051987;28;21495;-30
2023/12/18 12:37:33;;;;;;;8.35;5.45;;;5.70;99.90;;;;;;5044413;28;20043;-30
2023/12/18 12:40:05;;;;;;;5.07;4.05;;;5.70;99.90;;;;;;5041480;28;20726;-33
2023/12/18 12:42:31;;;;;;;8.70;5.32;;;5.70;99.90;;;;;;5045268;28;20068;-31
2023/12/18 12:44:58;;;;;;;8.07;6.05;;;5.70;99.90;;;;;;5049104;28;20028;-31
2023/12/18 12:47:26;;;;;;;9.65;6.32;;;5.70;99.90;;;;;;5047769;28;20116;-32